Flight Track Log - Related Links

Times and Time Zones

All times are in EDT time to prevent confusion due to time zone crossing. See the AFR1068 flight status page for this flight to view local times or setup timezone preferences in your user account.

Time Position Orientation Groundspeed Altitude Reporting Facility
EDT Latitude Longitude Course Direction KTS MPH feet Rate Location/Type
Thu 07:22:00 AM 49.1770 2.3867 327° Northwest  Level Estimated
Thu 07:23:00 AM 49.2317 2.3320 327° Northwest  Level Estimated
Thu 07:24:00 AM 49.2864 2.2772 327° Northwest  Level Estimated
Thu 07:25:00 AM 49.3417 2.2216 327° Northwest  Level Estimated
Thu 07:26:00 AM 49.3970 2.1659 327° Northwest  Level Estimated
Thu 07:27:00 AM 49.4523 2.1100 327° Northwest  Level Estimated
Thu 07:28:00 AM 49.5075 2.0540 327° Northwest  Level Estimated
Thu 07:29:00 AM 49.5627 1.9979 327° Northwest  Level Estimated
Thu 07:30:00 AM 49.6179 1.9417 327° Northwest  Level Estimated
Thu 07:31:00 AM 49.6731 1.8853 327° Northwest  Level Estimated
Thu 07:32:00 AM 49.7282 1.8288 326° Northwest  Level Estimated
Thu 07:33:00 AM 49.7833 1.7722 326° Northwest  Level Estimated
Thu 07:34:00 AM 49.8384 1.7155 326° Northwest  Level Estimated
Thu 07:35:00 AM 49.8935 1.6586 326° Northwest  Level Estimated
Thu 07:36:00 AM 49.9485 1.6016 326° Northwest  Level Estimated
Thu 07:37:00 AM 50.0035 1.5444 326° Northwest  Level Estimated
Thu 07:38:00 AM 50.0585 1.4872 326° Northwest  Level Estimated
Thu 07:39:00 AM 50.1134 1.4298 326° Northwest  Level Estimated
Thu 07:40:00 AM 50.1683 1.3722 326° Northwest  Level Estimated
Thu 07:41:00 AM 50.2232 1.3146 326° Northwest  Level Estimated
Thu 07:42:00 AM 50.2781 1.2568 326° Northwest  Level Estimated
Thu 07:43:00 AM 50.3329 1.1988 326° Northwest  Level Estimated
Thu 07:44:00 AM 50.3877 1.1408 326° Northwest  Level Estimated
Thu 07:45:00 AM 50.4425 1.0826 326° Northwest  Level Estimated
Thu 07:46:00 AM 50.4972 1.0242 326° Northwest  Level Estimated
Thu 07:47:00 AM 50.5519 0.9657 326° Northwest  Level Estimated
Thu 07:48:00 AM 50.6066 0.9071 326° Northwest  Level Estimated
Thu 07:49:00 AM 50.6612 0.8484 326° Northwest  Level Estimated
Thu 07:50:00 AM 50.7159 0.7895 326° Northwest  Level Estimated
Thu 07:51:00 AM 50.7705 0.7305 326° Northwest  Level Estimated
Thu 07:52:00 AM 50.8250 0.6714 326° Northwest  Level Estimated
Thu 07:53:00 AM 50.8873 0.6036 326° Northwest  Level Estimated
Thu 07:54:00 AM 50.9496 0.5356 326° Northwest  Level Estimated
Thu 07:55:00 AM 51.0118 0.4675 325° Northwest  Level Estimated
Thu 07:56:00 AM 51.0741 0.3992 325° Northwest  Level Estimated
Thu 07:57:00 AM 51.1362 0.3307 325° Northwest  Level Estimated
Thu 07:58:00 AM 51.1983 0.2620 325° Northwest  Level Estimated
Thu 07:59:00 AM 51.2604 0.1931 325° Northwest  Level Estimated
Thu 08:00:00 AM 51.3224 0.1240 325° Northwest  Level Estimated
Thu 08:01:00 AM 51.3844 0.0548 325° Northwest  Level Estimated
Thu 08:02:00 AM 51.4464 -0.0147 325° Northwest  Level Estimated
Thu 08:03:00 AM 51.5083 -0.0843 325° Northwest  Level Estimated
Thu 08:04:00 AM 51.5702 -0.1541 325° Northwest  Level Estimated
Thu 08:05:00 AM 51.6320 -0.2241 325° Northwest  Level Estimated
Thu 08:06:00 AM 51.6938 -0.2943 325° Northwest  Level Estimated
Thu 08:07:00 AM 51.7556 -0.3647 325° Northwest  Level Estimated
Thu 08:08:00 AM 51.8173 -0.4353 325° Northwest  Level Estimated
Thu 08:09:00 AM 51.8790 -0.5060 325° Northwest  Level Estimated
Thu 08:10:00 AM 51.9406 -0.5770 325° Northwest  Level Estimated
Thu 08:11:00 AM 52.0022 -0.6482 325° Northwest  Level Estimated
Thu 08:12:00 AM 52.0637 -0.7195 325° Northwest  Level Estimated
Thu 08:13:00 AM 52.1252 -0.7911 324° Northwest  Level Estimated
Thu 08:14:00 AM 52.1867 -0.8628 324° Northwest  Level Estimated
Thu 08:15:00 AM 52.2481 -0.9348 324° Northwest  Level Estimated
Thu 08:16:00 AM 52.3094 -1.0069 324° Northwest  Level Estimated
Thu 08:17:00 AM 52.3708 -1.0793 324° Northwest  Level Estimated
Thu 08:18:00 AM 52.4320 -1.1518 324° Northwest  Level Estimated
Thu 08:19:00 AM 52.4933 -1.2246 324° Northwest  Level Estimated
Thu 08:20:00 AM 52.5545 -1.2976 324° Northwest  Level Estimated
Thu 08:21:00 AM 52.6156 -1.3707 324° Northwest  Level Estimated
Thu 08:22:00 AM 52.6767 -1.4441 324° Northwest  Level Estimated
Thu 08:23:00 AM 52.7377 -1.5177 324° Northwest  Level Estimated
Thu 08:24:00 AM 52.7988 -1.5914 324° Northwest  Level Estimated
Thu 08:25:00 AM 52.8597 -1.6654 324° Northwest  Level Estimated
Thu 08:26:00 AM 52.9206 -1.7396 324° Northwest  Level Estimated
Thu 08:27:00 AM 52.9815 -1.8140 324° Northwest  Level Estimated
Thu 08:28:00 AM 53.0423 -1.8886 324° Northwest  Level Estimated
Thu 08:29:00 AM 53.1031 -1.9635 324° Northwest  Level Estimated
Thu 08:30:00 AM 53.1638 -2.0385 323° Northwest  Level Estimated
Thu 08:31:00 AM 53.2245 -2.1137 323° Northwest  Level Estimated
Thu 08:32:00 AM 53.2851 -2.1892 323° Northwest  Level Estimated
Thu 08:33:00 AM 53.3457 -2.2649 323° Northwest  Level Estimated
Thu 08:34:00 AM 53.3537 -2.2750 323° Northwest  Level Estimated
Thu 08:35:00 AM 53.3537 -2.2750 North  Level Estimated
Thu 08:36:00 AM 53.3537 -2.2750 North  Level Estimated
Thu 08:37:00 AM 53.3537 -2.2750 North  Level Estimated
Thu 08:38:00 AM 53.3537 -2.2750 North  Level Estimated
Thu 08:39:00 AM 53.3537 -2.2750 North  Level Estimated
Thu 08:40:00 AM 53.3537 -2.2750 North  Level Estimated
Thu 08:41:00 AM 53.3537 -2.2750 North  Level Estimated
Thu 08:42:00 AM 53.3537 -2.2750 North  Level Estimated

Login

Don't have an account? Register now (free) for customized features, flight alerts, and more!